Time;durP1;ratioP1;P1;durP2;ratioP2;P2;SDS_P1;SDS_P2;PMS_P1;PMS_P2;Temp;Humidity;BMP_temperature;BMP_pressure;BME280_temperature;BME280_humidity;BME280_pressure;Samples;Min_cycle;Max_cycle;Signal;HPM_P1;HPM_P2
2021/04/04 00:01:08;;;;;;;4.53;2.67;;;8.10;99.90;;;;;;5093610;28;20172;-67
2021/04/04 00:03:33;;;;;;;6.10;3.97;;;8.00;99.90;;;;;;5091903;28;20256;-66
2021/04/04 00:05:59;;;;;;;4.53;2.73;;;8.00;99.90;;;;;;5093609;28;20173;-67
2021/04/04 00:08:25;;;;;;;5.40;4.37;;;8.00;99.90;;;;;;5093262;28;20197;-66
2021/04/04 00:10:51;;;;;;;6.57;4.10;;;7.90;99.90;;;;;;5091998;28;20192;-65
2021/04/04 00:13:17;;;;;;;8.05;3.50;;;7.90;99.90;;;;;;5093863;28;20575;-66
2021/04/04 00:15:43;;;;;;;5.13;3.90;;;8.00;99.90;;;;;;5097149;28;20177;-66
2021/04/04 00:18:09;;;;;;;4.97;3.13;;;7.90;99.90;;;;;;5096835;28;20223;-67
2021/04/04 00:20:34;;;;;;;5.23;4.73;;;7.80;99.90;;;;;;5096928;28;20184;-67
2021/04/04 00:23:00;;;;;;;5.33;3.70;;;7.80;99.90;;;;;;5095305;28;20528;-66
2021/04/04 00:25:26;;;;;;;6.30;3.43;;;7.80;99.90;;;;;;5095499;28;20291;-65
2021/04/04 00:27:51;;;;;;;3.70;2.70;;;7.80;99.90;;;;;;5096521;28;20275;-66
2021/04/04 00:30:20;;;;;;;4.77;3.57;;;7.80;99.90;;;;;;5095347;28;20404;-68
2021/04/04 00:32:47;;;;;;;5.68;3.72;;;7.90;99.90;;;;;;5096453;28;20196;-67
2021/04/04 00:35:16;;;;;;;4.88;3.00;;;7.90;99.90;;;;;;5112317;28;20177;-66
2021/04/04 00:37:43;;;;;;;4.30;3.22;;;7.90;99.90;;;;;;5095140;28;20181;-65
2021/04/04 00:40:15;;;;;;;4.30;2.90;;;7.90;99.90;;;;;;5096512;28;20168;-66
2021/04/04 00:42:40;;;;;;;6.15;4.45;;;7.80;99.90;;;;;;5096367;28;20208;-66
2021/04/04 00:45:18;;;;;;;5.10;3.33;;;7.80;99.90;;;;;;5096434;28;20219;-65
2021/04/04 00:47:44;;;;;;;5.57;3.83;;;7.80;99.90;;;;;;5094703;28;20764;-65
2021/04/04 00:50:11;;;;;;;2.55;2.33;;;7.80;99.90;;;;;;5096379;28;20163;-68
2021/04/04 00:52:37;;;;;;;4.72;3.00;;;7.70;99.90;;;;;;5094831;28;20734;-66
2021/04/04 00:55:07;;;;;;;2.88;2.00;;;7.70;99.90;;;;;;5094878;28;20180;-66
2021/04/04 00:57:33;;;;;;;1.45;1.30;;;7.70;99.90;;;;;;5094727;28;20214;-66
2021/04/04 01:00:01;;;;;;;2.35;1.75;;;7.70;99.90;;;;;;5096008;28;20214;-66
2021/04/04 01:02:27;;;;;;;3.00;1.95;;;7.70;99.90;;;;;;5096068;28;20173;-66
2021/04/04 01:04:54;;;;;;;1.37;1.27;;;7.70;99.90;;;;;;5095920;28;20267;-66
2021/04/04 01:07:20;;;;;;;1.92;1.30;;;7.60;99.90;;;;;;5094596;28;20436;-67
2021/04/04 01:09:46;;;;;;;4.63;1.60;;;7.70;99.90;;;;;;5094524;28;20677;-66
2021/04/04 01:12:23;;;;;;;2.05;1.38;;;7.70;99.90;;;;;;5094768;28;20437;-67
2021/04/04 01:14:57;;;;;;;2.47;1.77;;;7.60;99.90;;;;;;5095734;28;20200;-67
2021/04/04 01:17:25;;;;;;;2.95;1.92;;;7.60;99.90;;;;;;5095844;28;20200;-67
2021/04/04 01:20:03;;;;;;;2.00;1.77;;;7.50;99.90;;;;;;5095619;28;20180;-66
2021/04/04 01:22:50;;;;;;;1.70;1.33;;;7.40;99.90;;;;;;5094418;28;20542;-67
2021/04/04 01:25:29;;;;;;;1.38;1.27;;;7.60;99.90;;;;;;5095057;28;20641;-68
2021/04/04 01:28:00;;;;;;;2.05;1.20;;;7.40;99.90;;;;;;5095503;28;20196;-67
2021/04/04 01:30:30;;;;;;;1.50;1.30;;;7.40;99.90;;;;;;5095772;28;20204;-66
2021/04/04 01:32:57;;;;;;;1.08;0.90;;;7.30;99.90;;;;;;5095584;28;20205;-66
2021/04/04 01:35:26;;;;;;;0.98;0.80;;;7.30;99.90;;;;;;5095435;28;20314;-66
2021/04/04 01:37:58;;;;;;;1.10;0.85;;;7.30;99.90;;;;;;5094008;28;20284;-65
2021/04/04 01:40:26;;;;;;;1.95;1.23;;;7.40;99.90;;;;;;5095447;28;20177;-65
2021/04/04 01:42:53;;;;;;;2.17;1.67;;;7.20;99.90;;;;;;5095144;28;20207;-68
2021/04/04 01:45:22;;;;;;;1.83;0.95;;;7.20;99.90;;;;;;5095355;28;20177;-67
2021/04/04 01:47:48;;;;;;;1.88;1.60;;;7.20;99.90;;;;;;5099625;28;20230;-65
2021/04/04 01:50:14;;;;;;;2.22;1.15;;;7.20;99.90;;;;;;5097181;28;20233;-68
2021/04/04 01:52:41;;;;;;;0.77;0.55;;;7.20;99.90;;;;;;5115214;28;20186;-67
2021/04/04 01:55:08;;;;;;;0.70;0.68;;;7.20;99.90;;;;;;5097214;28;20176;-65
2021/04/04 01:57:34;;;;;;;1.35;1.15;;;7.10;99.90;;;;;;5115256;28;20210;-66
2021/04/04 02:00:02;;;;;;;1.45;1.35;;;7.10;99.90;;;;;;5115265;28;20692;-67
2021/04/04 02:02:29;;;;;;;1.52;1.42;;;7.20;99.90;;;;;;5115179;28;20287;-66
2021/04/04 02:04:55;;;;;;;1.20;0.98;;;7.20;99.90;;;;;;5115053;28;20537;-66
2021/04/04 02:07:21;;;;;;;1.40;1.00;;;7.20;99.90;;;;;;5113942;28;20612;-66
2021/04/04 02:09:48;;;;;;;3.60;2.00;;;7.20;99.90;;;;;;5115040;28;20231;-67
2021/04/04 02:12:16;;;;;;;2.17;2.00;;;7.10;99.90;;;;;;5096972;28;20179;-66
2021/04/04 02:14:44;;;;;;;1.85;1.45;;;7.00;99.90;;;;;;5114827;28;20214;-66
2021/04/04 02:17:10;;;;;;;2.60;1.83;;;7.00;99.90;;;;;;5115488;28;20271;-66
2021/04/04 02:19:37;;;;;;;2.20;1.60;;;6.80;99.90;;;;;;5114828;28;20203;-67
2021/04/04 02:22:03;;;;;;;3.85;1.35;;;6.80;99.90;;;;;;5115499;28;20404;-66
2021/04/04 02:24:30;;;;;;;1.00;0.90;;;6.80;99.90;;;;;;5114816;28;20762;-66
2021/04/04 02:26:57;;;;;;;0.73;0.70;;;6.80;99.90;;;;;;5115232;28;20415;-66
2021/04/04 02:29:22;;;;;;;2.38;1.55;;;6.80;99.90;;;;;;5114679;28;20200;-65
2021/04/04 02:31:58;;;;;;;1.67;1.23;;;6.80;99.90;;;;;;5114829;28;20187;-65
2021/04/04 02:34:32;;;;;;;0.93;0.82;;;6.80;99.90;;;;;;5096277;28;20467;-65
2021/04/04 02:36:58;;;;;;;2.75;1.92;;;6.80;99.90;;;;;;5114417;28;20577;-66
2021/04/04 02:39:38;;;;;;;2.13;1.60;;;6.90;99.90;;;;;;5114506;28;20231;-65
2021/04/04 02:42:04;;;;;;;2.15;1.75;;;6.90;99.90;;;;;;5115191;28;20183;-65
2021/04/04 02:44:31;;;;;;;1.50;1.17;;;6.80;99.90;;;;;;5114390;28;20283;-67
2021/04/04 02:47:02;;;;;;;1.35;1.02;;;6.90;99.90;;;;;;5114999;28;20621;-66
2021/04/04 02:49:33;;;;;;;1.25;1.10;;;6.90;99.90;;;;;;5114475;28;20263;-66
2021/04/04 02:52:03;;;;;;;3.08;1.00;;;7.00;99.90;;;;;;5114910;28;20172;-67
2021/04/04 02:54:31;;;;;;;2.58;1.73;;;7.00;99.90;;;;;;5114184;28;20233;-66
2021/04/04 02:56:58;;;;;;;1.45;1.35;;;7.10;99.90;;;;;;5114918;28;20693;-68
2021/04/04 02:59:28;;;;;;;2.58;1.42;;;7.20;99.90;;;;;;5096065;28;20203;-67
2021/04/04 03:01:57;;;;;;;2.22;1.20;;;7.20;99.90;;;;;;5114634;28;20172;-67
2021/04/04 03:04:24;;;;;;;3.70;1.40;;;7.10;99.90;;;;;;5114215;28;20729;-67
2021/04/04 03:06:52;;;;;;;1.15;0.70;;;7.20;99.90;;;;;;5114598;28;20220;-66
2021/04/04 03:09:19;;;;;;;1.63;1.50;;;7.20;99.90;;;;;;5114199;28;20187;-66
2021/04/04 03:11:50;;;;;;;1.35;1.25;;;7.20;99.90;;;;;;5114618;28;20171;-66
2021/04/04 03:14:16;;;;;;;0.80;0.80;;;7.10;99.90;;;;;;5114058;28;20364;-67
2021/04/04 03:16:43;;;;;;;1.30;1.20;;;7.10;99.90;;;;;;5114554;28;20180;-66
2021/04/04 03:19:12;;;;;;;1.85;0.70;;;7.20;99.90;;;;;;5114057;28;20199;-65
2021/04/04 03:21:39;;;;;;;2.00;1.90;;;7.10;99.90;;;;;;5114472;28;20257;-67
2021/04/04 03:24:06;;;;;;;1.70;1.40;;;7.10;99.90;;;;;;5113957;28;20196;-66
2021/04/04 03:26:32;;;;;;;1.08;0.95;;;7.00;99.90;;;;;;5114302;28;20735;-67
2021/04/04 03:28:58;;;;;;;2.80;1.27;;;7.10;99.90;;;;;;5095664;28;20223;-66
2021/04/04 03:31:24;;;;;;;1.17;1.00;;;7.00;99.90;;;;;;5114385;28;20176;-65
2021/04/04 03:33:50;;;;;;;1.63;1.23;;;7.00;99.90;;;;;;5113704;28;20207;-66
2021/04/04 03:36:20;;;;;;;1.27;1.08;;;7.10;99.90;;;;;;5114471;28;20680;-67
2021/04/04 03:38:48;;;;;;;1.55;1.45;;;7.10;99.90;;;;;;5113781;28;20196;-66
2021/04/04 03:41:14;;;;;;;1.33;1.23;;;7.10;99.90;;;;;;5113801;28;20267;-66
2021/04/04 03:43:41;;;;;;;1.83;1.50;;;7.00;99.90;;;;;;5113810;28;20218;-66
2021/04/04 03:46:12;;;;;;;1.30;1.20;;;7.00;99.90;;;;;;5114165;28;20175;-66
2021/04/04 03:48:41;;;;;;;5.10;1.75;;;7.00;99.90;;;;;;5114893;28;20696;-66
2021/04/04 03:51:09;;;;;;;1.95;1.38;;;7.00;99.90;;;;;;5118032;28;20213;-66
2021/04/04 03:53:39;;;;;;;1.65;1.40;;;7.10;99.90;;;;;;5117610;28;20276;-66
2021/04/04 03:56:08;;;;;;;1.73;1.35;;;7.10;99.90;;;;;;5118100;28;20171;-65
2021/04/04 03:58:36;;;;;;;2.58;1.95;;;7.20;99.90;;;;;;5117566;28;20561;-66
2021/04/04 04:01:05;;;;;;;2.78;2.05;;;7.10;99.90;;;;;;5117921;28;20178;-66
2021/04/04 04:03:33;;;;;;;1.10;1.00;;;7.00;99.90;;;;;;5117514;28;20192;-66
2021/04/04 04:05:59;;;;;;;2.00;1.60;;;6.90;99.90;;;;;;5117898;28;20168;-66
2021/04/04 04:08:26;;;;;;;1.23;1.02;;;6.80;99.90;;;;;;5117440;28;20195;-66
2021/04/04 04:10:53;;;;;;;1.45;0.98;;;6.70;99.90;;;;;;5117548;28;20521;-67
2021/04/04 04:13:20;;;;;;;2.08;1.15;;;6.60;99.90;;;;;;5117367;28;20348;-66
2021/04/04 04:15:48;;;;;;;1.30;1.10;;;6.40;99.90;;;;;;5117344;28;20164;-67
2021/04/04 04:18:16;;;;;;;2.45;1.52;;;6.40;99.90;;;;;;5117315;28;20191;-66
2021/04/04 04:20:42;;;;;;;2.42;1.35;;;6.30;99.90;;;;;;5117472;28;20597;-66
2021/04/04 04:23:09;;;;;;;2.25;1.55;;;6.20;99.90;;;;;;5117172;28;20195;-67
2021/04/04 04:25:37;;;;;;;2.90;1.70;;;6.10;99.90;;;;;;5117090;28;20571;-67
2021/04/04 04:28:04;;;;;;;2.83;1.40;;;6.00;99.90;;;;;;5098280;28;20389;-66
2021/04/04 04:30:30;;;;;;;1.75;1.50;;;5.90;99.90;;;;;;5117050;28;20183;-66
2021/04/04 04:33:00;;;;;;;2.20;1.30;;;5.90;99.90;;;;;;5098672;28;20204;-66
2021/04/04 04:35:26;;;;;;;1.55;1.45;;;5.80;99.90;;;;;;5099179;28;20760;-67
2021/04/04 04:37:54;;;;;;;1.95;1.52;;;5.70;99.90;;;;;;5116840;28;20199;-67
2021/04/04 04:40:20;;;;;;;1.45;0.90;;;5.70;99.90;;;;;;5116968;28;20207;-65
2021/04/04 04:42:49;;;;;;;2.45;1.42;;;5.70;99.90;;;;;;5098746;28;20202;-66
2021/04/04 04:45:25;;;;;;;2.90;1.17;;;5.70;99.90;;;;;;5116737;28;20168;-65
2021/04/04 04:47:52;;;;;;;1.92;1.25;;;5.60;99.90;;;;;;5116493;28;20223;-67
2021/04/04 04:50:19;;;;;;;2.20;1.85;;;5.50;99.90;;;;;;5098444;28;20525;-66
2021/04/04 04:52:45;;;;;;;2.95;1.92;;;5.40;99.90;;;;;;5116456;28;20225;-66
2021/04/04 04:55:11;;;;;;;1.30;1.17;;;5.40;99.90;;;;;;5116588;28;20192;-65
2021/04/04 04:57:38;;;;;;;1.88;1.38;;;5.40;99.90;;;;;;5098225;28;20271;-66
2021/04/04 05:00:08;;;;;;;1.38;1.27;;;5.30;99.90;;;;;;5115570;28;20198;-66
2021/04/04 05:02:35;;;;;;;2.42;2.20;;;5.40;99.90;;;;;;5116389;28;20654;-66
2021/04/04 05:05:02;;;;;;;2.08;1.45;;;5.30;99.90;;;;;;5116438;28;20191;-66
2021/04/04 05:07:31;;;;;;;2.35;1.92;;;5.30;99.90;;;;;;5116330;28;20172;-65
2021/04/04 05:09:57;;;;;;;2.33;1.55;;;5.30;99.90;;;;;;5116291;28;20645;-67
2021/04/04 05:12:25;;;;;;;4.35;3.58;;;5.30;99.90;;;;;;5116382;28;20641;-66
2021/04/04 05:14:53;;;;;;;2.72;1.55;;;5.30;99.90;;;;;;5097768;28;20211;-68
2021/04/04 05:17:18;;;;;;;1.65;1.55;;;5.20;99.90;;;;;;5116326;28;20174;-68
2021/04/04 05:19:44;;;;;;;1.63;1.53;;;5.20;99.90;;;;;;5116028;28;20200;-66
2021/04/04 05:22:10;;;;;;;1.60;1.50;;;5.20;99.90;;;;;;5116609;28;20187;-66
2021/04/04 05:24:37;;;;;;;3.90;2.40;;;5.20;99.90;;;;;;5115935;28;20195;-67
2021/04/04 05:27:03;;;;;;;2.35;1.80;;;5.20;99.90;;;;;;5116524;28;20194;-66
2021/04/04 05:29:29;;;;;;;2.33;1.58;;;5.20;99.90;;;;;;5115803;28;20283;-67
2021/04/04 05:31:56;;;;;;;1.50;1.40;;;5.30;99.90;;;;;;5116353;28;20263;-66
2021/04/04 05:34:27;;;;;;;2.72;1.80;;;5.30;99.90;;;;;;5115754;28;20514;-66
2021/04/04 05:37:01;;;;;;;3.45;2.08;;;5.40;99.90;;;;;;5116119;28;20245;-67
2021/04/04 05:39:29;;;;;;;1.30;1.20;;;5.40;99.90;;;;;;5097395;28;20202;-66
2021/04/04 05:42:00;;;;;;;2.55;1.67;;;5.60;99.90;;;;;;5097481;28;20183;-65
2021/04/04 05:44:33;;;;;;;3.03;2.72;;;5.70;99.90;;;;;;5115617;28;20279;-66
2021/04/04 05:47:09;;;;;;;4.10;2.60;;;5.80;99.90;;;;;;5116076;28;20580;-66
2021/04/04 05:49:50;;;;;;;3.55;2.67;;;5.90;99.90;;;;;;5115551;28;20258;-66
2021/04/04 05:52:28;;;;;;;3.45;2.28;;;5.90;99.90;;;;;;5115490;28;20184;-66
2021/04/04 05:55:25;;;;;;;2.28;1.90;;;6.10;99.90;;;;;;5115233;28;20291;-66
2021/04/04 05:58:10;;;;;;;2.50;2.28;;;6.20;99.90;;;;;;5097348;28;20206;-66
2021/04/04 06:00:41;;;;;;;2.30;2.10;;;6.20;99.90;;;;;;5097117;28;20179;-67
2021/04/04 06:03:15;;;;;;;2.30;2.10;;;6.30;99.90;;;;;;5115135;28;20203;-67
2021/04/04 06:06:15;;;;;;;4.07;2.45;;;6.40;99.90;;;;;;5115228;28;20175;-66
2021/04/04 06:09:05;;;;;;;2.75;2.55;;;6.50;99.90;;;;;;5115130;28;20192;-66
2021/04/04 06:12:04;;;;;;;3.03;2.50;;;6.60;99.90;;;;;;5115522;28;20176;-66
2021/04/04 06:15:18;;;;;;;4.40;2.35;;;6.80;99.90;;;;;;5115083;28;20242;-66
2021/04/04 06:17:54;;;;;;;3.85;1.95;;;7.00;99.90;;;;;;5096627;28;20210;-67
2021/04/04 06:20:43;;;;;;;3.10;2.53;;;7.10;99.90;;;;;;5096722;28;20175;-67
2021/04/04 06:23:09;;;;;;;4.50;3.65;;;7.20;99.90;;;;;;5114948;28;20785;-66
2021/04/04 06:25:49;;;;;;;2.83;2.40;;;7.40;99.90;;;;;;5114926;28;20183;-67
2021/04/04 06:28:15;;;;;;;5.03;2.22;;;7.40;99.90;;;;;;5114751;28;20431;-66
2021/04/04 06:31:15;;;;;;;5.00;2.70;;;7.60;99.90;;;;;;5114902;28;20172;-66
2021/04/04 06:33:45;;;;;;;5.05;2.38;;;7.70;99.90;;;;;;5113882;28;20704;-66
2021/04/04 06:36:38;;;;;;;2.88;2.30;;;7.90;99.90;;;;;;5114947;28;20176;-65
2021/04/04 06:39:05;;;;;;;1.90;1.80;;;7.90;99.90;;;;;;5096406;28;20207;-66
2021/04/04 06:41:48;;;;;;;2.35;1.98;;;8.10;99.90;;;;;;5114851;28;20221;-66
2021/04/04 06:44:32;;;;;;;2.63;2.35;;;8.20;99.90;;;;;;5096239;28;20218;-67
2021/04/04 06:47:13;;;;;;;3.72;2.58;;;8.40;99.90;;;;;;5115208;28;20178;-67
2021/04/04 06:50:06;;;;;;;2.70;1.85;;;8.50;99.90;;;;;;5114188;28;20231;-66
2021/04/04 06:52:55;;;;;;;2.60;1.42;;;8.60;99.90;;;;;;5114398;28;20180;-66
2021/04/04 06:55:38;;;;;;;1.77;1.65;;;8.60;99.90;;;;;;5096163;28;20188;-66
2021/04/04 06:58:04;;;;;;;2.35;2.15;;;8.70;99.90;;;;;;5095932;28;20203;-67
2021/04/04 07:00:53;;;;;;;3.27;2.10;;;9.10;99.90;;;;;;5114303;28;20262;-67
2021/04/04 07:03:23;;;;;;;6.70;2.83;;;9.10;99.90;;;;;;5114284;28;20680;-66
2021/04/04 07:06:18;;;;;;;4.40;2.03;;;9.00;99.90;;;;;;5114469;28;20172;-66
2021/04/04 07:09:10;;;;;;;3.55;3.25;;;9.10;99.90;;;;;;5114141;28;20242;-67
2021/04/04 07:12:01;;;;;;;1.38;1.30;;;9.30;99.90;;;;;;5114454;28;20195;-66
2021/04/04 07:14:30;;;;;;;3.35;1.42;;;9.80;99.90;;;;;;5095736;28;20222;-66
2021/04/04 07:17:09;;;;;;;2.00;1.55;;;9.60;99.90;;;;;;5114091;28;20709;-66
2021/04/04 07:20:09;;;;;;;3.22;1.90;;;9.70;99.90;;;;;;5095869;28;20198;-66
2021/04/04 07:23:13;;;;;;;3.45;1.45;;;9.80;99.90;;;;;;5114029;28;20172;-66
2021/04/04 07:25:52;;;;;;;3.45;2.40;;;10.30;99.90;;;;;;5069362;28;20636;-66
2021/04/04 07:28:36;;;;;;;2.33;2.10;;;10.20;99.90;;;;;;5118330;28;20561;-66
2021/04/04 07:31:10;;;;;;;4.35;2.10;;;10.10;99.90;;;;;;5118744;28;20178;-66
2021/04/04 07:33:48;;;;;;;2.50;2.30;;;10.00;99.90;;;;;;5118115;28;20735;-66
2021/04/04 07:36:43;;;;;;;3.28;2.67;;;10.50;99.90;;;;;;5118489;28;20172;-66
2021/04/04 07:39:32;;;;;;;2.40;2.13;;;10.60;99.90;;;;;;5118168;28;20271;-68
2021/04/04 07:42:33;;;;;;;4.55;2.90;;;10.80;99.90;;;;;;5117943;28;20507;-66
2021/04/04 07:45:23;;;;;;;2.55;2.35;;;10.50;99.90;;;;;;5117951;28;20175;-65
2021/04/04 07:48:23;;;;;;;3.50;2.40;;;10.50;99.90;;;;;;5099619;28;20270;-66
2021/04/04 07:50:57;;;;;;;3.40;2.70;;;10.30;99.90;;;;;;5118001;28;20186;-67
2021/04/04 07:53:47;;;;;;;2.40;2.17;;;10.50;99.90;;;;;;5117713;28;20231;-67
2021/04/04 07:56:22;;;;;;;3.80;2.95;;;10.70;99.90;;;;;;5118081;28;20186;-66
2021/04/04 07:58:59;;;;;;;6.72;2.33;;;10.50;99.90;;;;;;5117556;28;20243;-68
2021/04/04 08:01:40;;;;;;;4.07;2.40;;;10.40;99.90;;;;;;5118115;28;20176;-66
2021/04/04 08:04:26;;;;;;;2.88;2.30;;;10.50;99.90;;;;;;5117490;28;20196;-67
2021/04/04 08:06:59;;;;;;;4.40;3.33;;;10.60;99.90;;;;;;5117885;28;20208;-66
2021/04/04 08:09:44;;;;;;;4.18;2.47;;;10.60;99.90;;;;;;5117498;28;20208;-66
2021/04/04 08:12:15;;;;;;;1.10;1.10;;;10.50;99.90;;;;;;5118014;28;20728;-67
2021/04/04 08:14:52;;;;;;;3.92;2.45;;;10.60;99.90;;;;;;5117250;28;20211;-66
2021/04/04 08:17:18;;;;;;;3.05;2.30;;;10.90;99.90;;;;;;5117458;28;20524;-66
2021/04/04 08:19:50;;;;;;;4.47;2.10;;;10.50;99.90;;;;;;5117174;28;20245;-66
2021/04/04 08:22:31;;;;;;;6.45;3.30;;;11.10;99.90;;;;;;5117302;28;20180;-67
2021/04/04 08:25:06;;;;;;;3.90;2.20;;;11.50;99.90;;;;;;5117221;28;20175;-66
2021/04/04 08:27:51;;;;;;;3.90;2.20;;;11.50;99.90;;;;;;5098946;28;20179;-67
2021/04/04 08:30:23;;;;;;;2.75;2.47;;;11.70;99.90;;;;;;5117369;28;20171;-66
2021/04/04 08:33:17;;;;;;;2.78;2.40;;;11.60;99.90;;;;;;5098608;28;20200;-66
2021/04/04 08:35:45;;;;;;;3.28;2.33;;;11.60;99.90;;;;;;5115602;28;20232;-67
2021/04/04 08:38:28;;;;;;;1.08;0.95;;;11.50;99.90;;;;;;5117002;28;20570;-66
2021/04/04 08:40:58;;;;;;;3.92;2.72;;;12.20;99.90;;;;;;5117167;28;20644;-66
2021/04/04 08:43:26;;;;;;;3.80;2.03;;;12.60;99.90;;;;;;5116835;28;20211;-67
2021/04/04 08:46:10;;;;;;;2.58;1.85;;;12.90;99.90;;;;;;5116959;28;20172;-66
2021/04/04 08:48:39;;;;;;;2.75;1.85;;;12.80;98.20;;;;;;5116622;28;20310;-67
2021/04/04 08:51:10;;;;;;;2.80;2.30;;;12.40;97.50;;;;;;5116963;28;20179;-66
2021/04/04 08:53:44;;;;;;;4.35;3.35;;;12.30;98.00;;;;;;5116384;28;20487;-66
2021/04/04 08:56:11;;;;;;;2.80;1.77;;;12.60;97.80;;;;;;5116887;28;20648;-67
2021/04/04 08:58:39;;;;;;;4.75;2.45;;;12.60;97.30;;;;;;5116517;28;20661;-67
2021/04/04 09:01:10;;;;;;;2.70;2.45;;;12.40;96.80;;;;;;5116786;28;20191;-66
2021/04/04 09:03:38;;;;;;;2.17;1.98;;;11.70;98.00;;;;;;5116450;28;20585;-66
2021/04/04 09:06:06;;;;;;;4.47;3.50;;;11.40;98.90;;;;;;5116602;28;20229;-66
2021/04/04 09:08:33;;;;;;;5.35;2.65;;;11.60;98.20;;;;;;5116263;28;20195;-66
2021/04/04 09:11:00;;;;;;;3.45;2.28;;;11.60;98.90;;;;;;5098093;28;20202;-66
2021/04/04 09:13:31;;;;;;;3.97;2.85;;;11.20;98.90;;;;;;5116116;28;20628;-66
2021/04/04 09:15:59;;;;;;;4.90;2.80;;;11.80;98.80;;;;;;5116401;28;20229;-67
2021/04/04 09:18:26;;;;;;;5.72;4.57;;;11.30;98.60;;;;;;5115975;28;20446;-67
2021/04/04 09:21:06;;;;;;;13.57;7.88;;;11.40;98.70;;;;;;5116156;28;20190;-67
2021/04/04 09:23:33;;;;;;;18.90;9.95;;;11.20;98.80;;;;;;5116039;28;20219;-66
2021/04/04 09:26:07;;;;;;;99.50;36.78;;;11.20;99.00;;;;;;5116280;28;20300;-67
2021/04/04 09:28:39;;;;;;;100.45;40.25;;;11.40;99.00;;;;;;5115883;28;20286;-66
2021/04/04 09:31:07;;;;;;;18.42;9.65;;;11.10;98.00;;;;;;5116105;28;20176;-67
2021/04/04 09:33:37;;;;;;;5.43;3.70;;;11.30;98.40;;;;;;5115731;28;20314;-66
2021/04/04 09:36:05;;;;;;;4.22;2.75;;;11.10;98.20;;;;;;5116219;28;20538;-66
2021/04/04 09:38:42;;;;;;;3.08;2.20;;;11.10;98.20;;;;;;5115745;28;20657;-67
2021/04/04 09:41:10;;;;;;;28.95;13.27;;;11.10;98.60;;;;;;5116148;28;20500;-66
2021/04/04 09:44:06;;;;;;;14.60;6.63;;;11.00;98.80;;;;;;5115549;28;20199;-67
2021/04/04 09:46:31;;;;;;;3.60;2.95;;;11.10;98.80;;;;;;5113631;28;20188;-68
2021/04/04 09:48:57;;;;;;;7.10;4.90;;;10.90;99.20;;;;;;5115489;28;20299;-67
2021/04/04 09:51:23;;;;;;;19.50;11.13;;;11.10;99.30;;;;;;5097371;28;20188;-66
2021/04/04 09:53:50;;;;;;;14.95;6.40;;;11.80;98.90;;;;;;5115340;28;20478;-67
2021/04/04 09:56:18;;;;;;;3.33;1.83;;;12.00;97.20;;;;;;5096985;28;20179;-67
2021/04/04 09:58:46;;;;;;;6.57;4.47;;;11.90;97.50;;;;;;5115243;28;20184;-67
2021/04/04 10:01:15;;;;;;;11.07;4.75;;;12.30;95.60;;;;;;5097026;28;20274;-68
2021/04/04 10:03:41;;;;;;;4.37;3.33;;;12.20;95.80;;;;;;5115140;28;20280;-67
2021/04/04 10:06:12;;;;;;;8.70;3.77;;;11.90;96.60;;;;;;5097022;28;20426;-67
2021/04/04 10:08:39;;;;;;;5.60;3.50;;;12.50;97.70;;;;;;5115165;28;20442;-67
2021/04/04 10:11:15;;;;;;;6.30;2.90;;;12.80;96.20;;;;;;5115344;28;20480;-67
2021/04/04 10:13:40;;;;;;;7.27;4.53;;;13.20;94.80;;;;;;5114947;28;20467;-66
2021/04/04 10:16:20;;;;;;;2.43;2.23;;;13.80;96.70;;;;;;5115278;28;20502;-66
2021/04/04 10:19:17;;;;;;;3.57;2.10;;;13.60;94.40;;;;;;5114832;28;20191;-67
2021/04/04 10:22:02;;;;;;;4.90;2.53;;;13.60;94.30;;;;;;5115363;28;20404;-67
2021/04/04 10:24:28;;;;;;;6.30;2.80;;;13.80;95.60;;;;;;5096634;28;20443;-66
2021/04/04 10:27:27;;;;;;;5.60;3.07;;;13.50;93.50;;;;;;5115242;28;20427;-68
2021/04/04 10:30:17;;;;;;;3.80;2.30;;;13.60;94.20;;;;;;5109628;28;20472;-68
2021/04/04 10:32:44;;;;;;;4.87;3.33;;;13.60;94.00;;;;;;5114585;28;20396;-66
2021/04/04 10:35:11;;;;;;;3.33;1.67;;;14.30;93.60;;;;;;5096483;28;20999;-67
2021/04/04 10:37:38;;;;;;;3.33;2.43;;;14.20;92.10;;;;;;5096289;28;20405;-67
2021/04/04 10:40:09;;;;;;;6.20;3.20;;;14.10;93.20;;;;;;5114649;28;20411;-66
2021/04/04 10:42:37;;;;;;;4.57;2.90;;;14.30;92.40;;;;;;5114419;28;20408;-67
2021/04/04 10:45:08;;;;;;;1.27;0.93;;;13.90;93.00;;;;;;5114565;28;20419;-66
2021/04/04 10:47:33;;;;;;;2.80;2.40;;;13.40;91.70;;;;;;5114201;28;20412;-68
2021/04/04 10:50:03;;;;;;;4.60;2.40;;;14.10;92.90;;;;;;5114401;28;20412;-66
2021/04/04 10:52:29;;;;;;;3.33;2.00;;;13.60;92.80;;;;;;5114380;28;20199;-66
2021/04/04 10:54:56;;;;;;;3.07;1.90;;;13.60;96.00;;;;;;5114279;28;20547;-68
2021/04/04 10:57:22;;;;;;;8.20;4.13;;;13.40;93.80;;;;;;5114116;28;20408;-68
2021/04/04 10:59:48;;;;;;;1.47;0.73;;;13.70;96.00;;;;;;5095478;28;20799;-67
2021/04/04 11:02:14;;;;;;;3.73;2.67;;;13.80;93.80;;;;;;5114768;28;20435;-67
2021/04/04 11:04:40;;;;;;;1.53;1.37;;;13.80;94.50;;;;;;5114114;28;20198;-67
2021/04/04 11:07:07;;;;;;;4.67;3.93;;;13.70;93.60;;;;;;5113131;28;20546;-67
2021/04/04 11:09:33;;;;;;;4.50;2.73;;;14.20;94.60;;;;;;5114125;28;20450;-66
2021/04/04 11:12:00;;;;;;;2.20;1.93;;;14.20;93.30;;;;;;5114673;28;20416;-67
2021/04/04 11:14:29;;;;;;;2.23;2.13;;;14.10;95.70;;;;;;5113985;28;20672;-68
2021/04/04 11:16:59;;;;;;;4.87;2.50;;;14.40;97.90;;;;;;5114456;28;20412;-67
2021/04/04 11:19:26;;;;;;;3.20;2.60;;;14.40;97.20;;;;;;5095793;28;20960;-67
2021/04/04 11:21:54;;;;;;;8.17;3.80;;;13.60;93.80;;;;;;5114373;28;20431;-67
2021/04/04 11:24:20;;;;;;;5.97;3.57;;;13.80;94.70;;;;;;5114056;28;20804;-66
2021/04/04 11:26:50;;;;;;;4.43;3.77;;;13.60;94.80;;;;;;5114492;28;20465;-67
2021/04/04 11:29:21;;;;;;;2.13;1.63;;;13.50;94.10;;;;;;5118417;28;20451;-68
2021/04/04 11:31:49;;;;;;;2.93;2.63;;;13.80;95.70;;;;;;5134899;28;20433;-67
2021/04/04 11:34:22;;;;;;;3.30;1.17;;;13.50;92.50;;;;;;5115872;28;20609;-66
2021/04/04 11:36:51;;;;;;;3.17;2.53;;;13.40;92.60;;;;;;5116238;28;20825;-66
2021/04/04 11:39:16;;;;;;;2.30;2.07;;;13.40;91.90;;;;;;5115974;28;20435;-67
2021/04/04 11:41:56;;;;;;;4.23;3.80;;;12.50;92.70;;;;;;5134848;28;20422;-67
2021/04/04 11:44:23;;;;;;;3.30;2.50;;;12.20;93.50;;;;;;5116010;28;20195;-67
2021/04/04 11:46:55;;;;;;;3.37;3.10;;;12.30;93.20;;;;;;5134285;28;20938;-66
2021/04/04 11:49:45;;;;;;;3.80;2.97;;;12.00;94.10;;;;;;5134201;28;20520;-68
2021/04/04 11:52:11;;;;;;;4.40;3.23;;;12.30;94.10;;;;;;5116438;28;21011;-67
2021/04/04 11:54:45;;;;;;;3.40;2.47;;;12.20;94.40;;;;;;5115650;28;20541;-67
2021/04/04 11:57:18;;;;;;;3.70;3.30;;;12.30;94.30;;;;;;5134795;28;20186;-67
2021/04/04 11:59:44;;;;;;;3.20;2.90;;;12.60;93.70;;;;;;5115722;28;20475;-67
2021/04/04 12:02:12;;;;;;;2.73;1.97;;;12.90;92.30;;;;;;5134232;28;20797;-66
2021/04/04 12:04:45;;;;;;;3.80;2.87;;;12.90;92.20;;;;;;5134177;28;20426;-67
2021/04/04 12:07:13;;;;;;;3.60;2.43;;;13.40;90.90;;;;;;5134735;28;20835;-67
2021/04/04 12:09:42;;;;;;;2.90;2.23;;;13.10;90.50;;;;;;5135428;27;20427;-66
2021/04/04 12:12:08;;;;;;;3.07;2.60;;;12.90;90.60;;;;;;5138570;27;20415;-66
2021/04/04 12:14:56;;;;;;;3.90;2.67;;;12.80;90.70;;;;;;5137858;27;20587;-67
2021/04/04 12:17:28;;;;;;;3.70;2.40;;;12.60;90.90;;;;;;5119610;27;20424;-66
2021/04/04 12:19:54;;;;;;;2.47;2.27;;;12.60;90.90;;;;;;5137769;27;20486;-66
2021/04/04 12:22:31;;;;;;;3.27;1.93;;;12.50;90.90;;;;;;5137776;27;20949;-67
2021/04/04 12:24:57;;;;;;;6.97;2.87;;;12.50;91.00;;;;;;5119246;27;20928;-67
2021/04/04 12:27:24;;;;;;;8.03;3.10;;;12.60;90.50;;;;;;5137731;27;20402;-66
2021/04/04 12:29:55;;;;;;;2.90;2.00;;;12.50;90.40;;;;;;5137650;27;20242;-67
2021/04/04 12:32:22;;;;;;;4.30;2.27;;;12.60;90.90;;;;;;5137655;27;20399;-66
2021/04/04 12:34:49;;;;;;;5.87;3.43;;;12.90;86.70;;;;;;5118922;27;20458;-67
2021/04/04 12:37:17;;;;;;;4.60;2.83;;;12.60;86.90;;;;;;5138006;27;20429;-67
2021/04/04 12:39:43;;;;;;;7.53;3.00;;;12.60;88.10;;;;;;5137420;27;20427;-67
2021/04/04 12:42:20;;;;;;;3.37;1.97;;;12.60;88.10;;;;;;5137923;27;20410;-66
2021/04/04 12:44:48;;;;;;;2.13;1.93;;;12.70;87.50;;;;;;5137386;27;20951;-68
2021/04/04 12:47:24;;;;;;;2.83;2.20;;;12.50;88.50;;;;;;5119191;27;20419;-66
2021/04/04 12:49:59;;;;;;;1.73;1.40;;;12.60;85.10;;;;;;5096078;28;20962;-66
2021/04/04 12:52:43;;;;;;;1.40;1.30;;;12.70;84.00;;;;;;5096244;28;20420;-66
2021/04/04 12:55:18;;;;;;;2.57;1.60;;;12.90;82.60;;;;;;5096177;28;20884;-68
2021/04/04 12:57:47;;;;;;;1.10;1.00;;;12.80;82.20;;;;;;5096112;28;20920;-66
2021/04/04 13:00:20;;;;;;;1.23;1.13;;;13.00;80.00;;;;;;5094793;28;20417;-67
2021/04/04 13:02:57;;;;;;;8.43;1.23;;;12.90;80.90;;;;;;5096011;28;20432;-67
2021/04/04 13:05:24;;;;;;;1.53;0.90;;;13.30;80.50;;;;;;5096290;28;20409;-66
2021/04/04 13:07:50;;;;;;;1.30;0.93;;;13.40;77.80;;;;;;5095883;28;20432;-66
2021/04/04 13:10:16;;;;;;;2.23;1.30;;;13.50;77.40;;;;;;5096006;28;20417;-67
2021/04/04 13:12:42;;;;;;;1.33;1.13;;;13.70;76.10;;;;;;5095812;28;20405;-66
2021/04/04 13:15:09;;;;;;;1.47;0.87;;;14.30;77.80;;;;;;5095855;28;20207;-66
2021/04/04 13:17:41;;;;;;;1.63;1.10;;;14.10;75.00;;;;;;5094429;28;20812;-67